Time;durP1;ratioP1;P1;durP2;ratioP2;P2;SDS_P1;SDS_P2;PMS_P1;PMS_P2;Temp;Humidity;BMP_temperature;BMP_pressure;BME280_temperature;BME280_humidity;BME280_pressure;Samples;Min_cycle;Max_cycle;Signal;HPM_P1;HPM_P2
2022/05/10 00:03:06;;;;;;;3.27;1.70;;;17.30;99.90;;;;;;1921994;73;21051;-81
2022/05/10 00:06:16;;;;;;;2.12;1.60;;;17.30;99.90;;;;;;1944420;73;21047;-81
2022/05/10 00:09:10;;;;;;;2.05;1.60;;;17.30;99.90;;;;;;1946327;73;21138;-81
2022/05/10 00:14:57;;;;;;;2.60;1.87;;;17.20;99.90;;;;;;1963493;72;22151;-81
2022/05/10 00:20:48;;;;;;;2.30;1.70;;;16.80;99.90;;;;;;1932545;72;22206;-81
2022/05/10 00:26:38;;;;;;;4.03;1.95;;;16.80;99.90;;;;;;1949107;72;22629;-81
2022/05/10 00:29:48;;;;;;;2.25;1.90;;;16.80;99.90;;;;;;1887905;75;21047;-82
2022/05/10 00:32:58;;;;;;;3.72;2.00;;;16.60;99.90;;;;;;1886696;75;21076;-81
2022/05/10 00:35:49;;;;;;;3.10;1.62;;;16.60;99.90;;;;;;1883607;75;21146;-81
2022/05/10 00:39:00;;;;;;;2.37;1.85;;;16.60;99.90;;;;;;1883804;75;21090;-81
2022/05/10 00:42:00;;;;;;;2.70;1.85;;;16.50;99.90;;;;;;1902428;75;21102;-81
2022/05/10 00:44:55;;;;;;;2.17;1.82;;;16.50;99.90;;;;;;1893632;75;21115;-81
2022/05/10 00:50:28;;;;;;;2.77;1.92;;;16.30;99.90;;;;;;1945765;72;22283;-81
2022/05/10 00:53:46;;;;;;;2.75;1.90;;;16.30;99.90;;;;;;1925886;74;21551;-81
2022/05/10 00:57:00;;;;;;;5.72;1.90;;;16.40;99.90;;;;;;1929518;74;21088;-81
2022/05/10 00:59:57;;;;;;;2.65;1.92;;;16.40;99.90;;;;;;1905199;75;21066;-81
2022/05/10 01:03:10;;;;;;;3.20;1.90;;;16.30;99.90;;;;;;1911925;74;21158;-84
2022/05/10 01:08:47;;;;;;;2.62;1.90;;;16.30;99.90;;;;;;1942455;72;22147;-81
2022/05/10 01:12:00;;;;;;;3.72;2.22;;;16.30;99.90;;;;;;1899648;75;21087;-81
2022/05/10 01:15:13;;;;;;;3.08;2.02;;;16.20;99.90;;;;;;1899267;75;21055;-81
2022/05/10 01:18:04;;;;;;;2.02;1.90;;;16.10;99.90;;;;;;1896561;75;21121;-81
2022/05/10 01:21:24;;;;;;;3.67;2.02;;;16.10;99.90;;;;;;1908397;75;21058;-81
2022/05/10 01:24:47;;;;;;;3.33;2.35;;;16.10;99.90;;;;;;1906612;75;21204;-81
2022/05/10 01:27:48;;;;;;;3.83;1.95;;;16.00;99.90;;;;;;1906681;75;21623;-81
2022/05/10 01:30:40;;;;;;;2.95;2.30;;;15.90;99.90;;;;;;1911951;75;21094;-81
2022/05/10 01:36:16;;;;;;;2.72;2.12;;;16.00;99.90;;;;;;1955400;72;22213;-81
2022/05/10 01:39:30;;;;;;;4.15;2.10;;;16.10;99.90;;;;;;1900206;75;21054;-81
2022/05/10 01:45:23;;;;;;;3.75;2.52;;;16.10;99.90;;;;;;1947826;72;22236;-81
2022/05/10 01:51:18;;;;;;;2.17;2.00;;;16.10;99.90;;;;;;1954543;72;22079;-81
2022/05/10 01:55:09;;;;;;;3.58;2.33;;;16.10;99.90;;;;;;1941573;73;21088;-81
2022/05/10 01:58:22;;;;;;;2.20;2.00;;;16.10;99.90;;;;;;1933948;73;21102;-81
2022/05/10 02:01:16;;;;;;;3.17;1.92;;;16.10;99.90;;;;;;1917317;75;21118;-81
2022/05/10 02:04:29;;;;;;;4.25;2.17;;;16.10;99.90;;;;;;1940345;73;21106;-81
2022/05/10 02:10:07;;;;;;;3.65;2.10;;;16.10;99.90;;;;;;1941359;72;22612;-81
2022/05/10 02:16:02;;;;;;;3.12;2.40;;;16.10;99.90;;;;;;1936017;72;22248;-81
2022/05/10 02:21:54;;;;;;;3.45;2.17;;;16.10;99.90;;;;;;1975960;72;22175;-81
2022/05/10 02:27:46;;;;;;;2.83;1.90;;;16.10;99.90;;;;;;1926199;72;22300;-81
2022/05/10 02:30:59;;;;;;;3.77;2.00;;;16.10;99.90;;;;;;1915137;75;21120;-81
2022/05/10 02:34:09;;;;;;;4.97;2.27;;;16.10;99.90;;;;;;1895460;75;21176;-82
2022/05/10 02:37:00;;;;;;;2.50;2.02;;;16.10;99.90;;;;;;1884731;75;21112;-81
2022/05/10 02:40:12;;;;;;;2.67;1.90;;;16.00;99.90;;;;;;1896995;75;21131;-81
2022/05/10 02:45:43;;;;;;;2.75;2.37;;;16.00;99.90;;;;;;1955951;72;22204;-81
2022/05/10 02:51:31;;;;;;;3.50;1.98;;;15.90;99.90;;;;;;1933172;72;22278;-81
2022/05/10 02:54:40;;;;;;;3.65;2.10;;;15.90;99.90;;;;;;1917475;74;21061;-82
2022/05/10 02:57:53;;;;;;;2.72;1.77;;;15.90;99.90;;;;;;1884748;76;21116;-81
2022/05/10 03:00:45;;;;;;;2.42;1.90;;;15.80;99.90;;;;;;1901544;75;21086;-81
2022/05/10 03:03:55;;;;;;;3.50;2.15;;;15.80;99.90;;;;;;1900921;75;21062;-81
2022/05/10 03:06:47;;;;;;;3.92;2.00;;;15.70;99.90;;;;;;1895959;75;21056;-81
2022/05/10 03:09:39;;;;;;;3.90;2.25;;;15.70;99.90;;;;;;1920483;74;21086;-82
2022/05/10 03:12:32;;;;;;;3.35;2.02;;;15.60;99.90;;;;;;1904352;75;21231;-82
2022/05/10 03:15:25;;;;;;;5.05;1.95;;;15.60;99.90;;;;;;1903194;75;21109;-82
2022/05/10 03:20:56;;;;;;;2.33;2.00;;;15.50;99.90;;;;;;1948409;72;22265;-81
2022/05/10 03:24:08;;;;;;;2.33;2.12;;;15.50;99.90;;;;;;1911288;75;21173;-82
2022/05/10 03:27:18;;;;;;;2.30;2.10;;;15.50;99.90;;;;;;1906996;75;21144;-82
2022/05/10 03:30:12;;;;;;;3.17;2.47;;;15.40;99.90;;;;;;1905628;75;21156;-81
2022/05/10 03:36:01;;;;;;;3.17;2.20;;;15.30;99.90;;;;;;1976505;72;22206;-81
2022/05/10 03:39:11;;;;;;;2.50;2.27;;;15.30;99.90;;;;;;1917616;75;21626;-81
2022/05/10 03:45:04;;;;;;;3.33;2.42;;;15.40;99.90;;;;;;1934476;72;22196;-81
2022/05/10 03:48:16;;;;;;;3.90;2.50;;;15.30;99.90;;;;;;1907709;74;21150;-81
2022/05/10 03:51:26;;;;;;;6.50;2.60;;;15.30;99.90;;;;;;1895700;75;21079;-81
2022/05/10 03:56:58;;;;;;;2.45;2.25;;;15.30;99.90;;;;;;1951824;72;22124;-81
2022/05/10 04:02:52;;;;;;;3.70;2.12;;;15.30;99.90;;;;;;1948733;72;22197;-81
2022/05/10 04:06:02;;;;;;;2.98;2.33;;;15.30;99.90;;;;;;1940140;73;21108;-81
2022/05/10 04:09:13;;;;;;;5.15;2.30;;;15.30;99.90;;;;;;1930960;73;21046;-83
2022/05/10 04:14:43;;;;;;;3.90;2.20;;;15.40;99.90;;;;;;1944866;72;22581;-81
2022/05/10 04:17:53;;;;;;;3.08;2.20;;;15.30;99.90;;;;;;1884532;76;21574;-83
2022/05/10 04:21:02;;;;;;;3.27;2.45;;;15.30;99.90;;;;;;1877175;76;21038;-82
2022/05/10 04:23:54;;;;;;;3.33;2.55;;;15.30;99.90;;;;;;1910363;75;21042;-81
2022/05/10 04:27:05;;;;;;;2.98;2.10;;;15.40;99.90;;;;;;1895529;75;21135;-82
2022/05/10 04:29:57;;;;;;;4.40;2.45;;;15.40;99.90;;;;;;1902525;75;21104;-81
2022/05/10 04:35:28;;;;;;;3.80;2.25;;;15.40;99.90;;;;;;1947378;72;22188;-81
2022/05/10 04:38:38;;;;;;;2.40;1.87;;;15.40;99.90;;;;;;1917621;75;21031;-81
2022/05/10 04:41:50;;;;;;;2.67;1.98;;;15.40;99.90;;;;;;1917659;75;21047;-84
2022/05/10 04:44:42;;;;;;;3.85;2.22;;;15.40;99.90;;;;;;1948769;73;21086;-82
2022/05/10 04:47:52;;;;;;;2.47;2.10;;;15.40;99.90;;;;;;1917619;75;21040;-81
2022/05/10 04:50:43;;;;;;;3.25;2.15;;;15.40;99.90;;;;;;1927699;74;21125;-81
2022/05/10 04:53:36;;;;;;;4.17;2.72;;;15.40;99.90;;;;;;1917630;75;21101;-82
2022/05/10 04:56:28;;;;;;;4.67;2.58;;;15.40;99.90;;;;;;1940346;73;21505;-81
2022/05/10 04:59:19;;;;;;;4.22;2.50;;;15.40;99.90;;;;;;1923429;73;21593;-81
2022/05/10 05:02:11;;;;;;;4.70;2.90;;;15.40;99.90;;;;;;1917775;75;21152;-81
2022/05/10 05:05:03;;;;;;;3.42;2.40;;;15.30;99.90;;;;;;1917645;75;21080;-83
2022/05/10 05:07:55;;;;;;;4.72;2.50;;;15.30;99.90;;;;;;1918083;73;21543;-82
2022/05/10 05:10:46;;;;;;;2.55;2.35;;;15.30;99.90;;;;;;1942687;73;21091;-81
2022/05/10 05:16:21;;;;;;;4.05;2.62;;;15.40;99.90;;;;;;1935766;72;22205;-81
2022/05/10 05:19:31;;;;;;;3.22;2.50;;;15.30;99.90;;;;;;1910093;74;21070;-82
2022/05/10 05:25:20;;;;;;;4.20;2.33;;;15.40;99.90;;;;;;1948878;72;22531;-82
2022/05/10 05:31:11;;;;;;;3.25;2.95;;;15.50;99.90;;;;;;1945991;72;22632;-84
2022/05/10 05:34:21;;;;;;;4.47;2.90;;;15.50;99.90;;;;;;1913042;75;21596;-83
2022/05/10 05:40:13;;;;;;;4.20;3.12;;;15.60;99.90;;;;;;1944958;72;22110;-82
2022/05/10 05:43:25;;;;;;;4.10;3.22;;;15.70;99.90;;;;;;1900232;75;21487;-83
2022/05/10 05:46:35;;;;;;;16.07;6.42;;;15.70;99.90;;;;;;1904717;75;21064;-83
2022/05/10 05:49:27;;;;;;;16.45;7.83;;;15.70;99.90;;;;;;1889692;75;21115;-83
2022/05/10 05:52:37;;;;;;;31.68;12.25;;;15.80;99.90;;;;;;1889102;75;21127;-83
2022/05/10 05:55:29;;;;;;;7.25;4.05;;;15.90;99.90;;;;;;1852182;77;21140;-83
2022/05/10 05:58:21;;;;;;;14.20;6.78;;;15.90;99.90;;;;;;1904877;75;21062;-83
2022/05/10 06:01:14;;;;;;;11.38;5.97;;;16.00;99.90;;;;;;1883431;75;21109;-83
2022/05/10 06:04:06;;;;;;;6.17;3.58;;;16.00;99.90;;;;;;1904762;75;21205;-83
2022/05/10 06:06:58;;;;;;;6.20;3.62;;;16.10;99.90;;;;;;1885535;75;21129;-83
2022/05/10 06:09:50;;;;;;;6.60;3.25;;;16.20;99.90;;;;;;1887319;75;21063;-83
2022/05/10 06:12:43;;;;;;;5.97;3.42;;;16.30;99.90;;;;;;1904541;75;21111;-82
2022/05/10 06:18:28;;;;;;;6.08;3.27;;;16.40;99.90;;;;;;1950200;72;22217;-84
2022/05/10 06:21:39;;;;;;;5.17;3.45;;;16.50;99.90;;;;;;1931386;73;21068;-84
2022/05/10 06:24:48;;;;;;;6.12;3.35;;;16.50;99.90;;;;;;1945774;73;21098;-82
2022/05/10 06:30:21;;;;;;;5.58;3.70;;;16.60;99.90;;;;;;1958142;72;22127;-84
2022/05/10 06:36:10;;;;;;;5.33;3.47;;;16.80;99.90;;;;;;1954768;72;22182;-82
2022/05/10 06:42:01;;;;;;;4.50;3.20;;;16.90;99.90;;;;;;1947119;72;22651;-82
2022/05/10 06:45:15;;;;;;;6.97;3.83;;;16.90;99.90;;;;;;1917270;75;21047;-82
2022/05/10 06:48:24;;;;;;;4.22;3.15;;;17.00;99.90;;;;;;1905723;75;21066;-82
2022/05/10 06:51:19;;;;;;;5.42;3.35;;;17.10;99.90;;;;;;1896575;75;21086;-82
2022/05/10 06:57:08;;;;;;;3.90;3.47;;;17.10;99.90;;;;;;1964941;72;22189;-83
2022/05/10 07:00:22;;;;;;;6.40;3.45;;;17.10;99.90;;;;;;1905056;75;21098;-82
2022/05/10 07:06:12;;;;;;;7.40;3.85;;;17.30;99.90;;;;;;1949318;72;22218;-81
2022/05/10 07:09:23;;;;;;;11.28;4.20;;;17.40;99.90;;;;;;1943250;73;21107;-84
2022/05/10 07:12:35;;;;;;;9.48;4.40;;;17.50;99.90;;;;;;1919747;73;21847;-82
2022/05/10 07:15:28;;;;;;;7.03;4.53;;;17.40;99.90;;;;;;1917240;75;21581;-82
2022/05/10 07:21:18;;;;;;;5.45;3.62;;;17.50;99.90;;;;;;1930540;72;22207;-81
2022/05/10 07:24:27;;;;;;;5.45;3.77;;;17.60;99.90;;;;;;1921792;74;21118;-81
2022/05/10 07:30:19;;;;;;;7.50;5.08;;;17.70;99.90;;;;;;1944823;72;22240;-82
2022/05/10 07:36:28;;;;;;;5.12;3.70;;;17.80;99.90;;;;;;1953534;72;22668;-81
2022/05/10 07:39:37;;;;;;;3.52;3.20;;;17.90;99.90;;;;;;1916943;75;21063;-82
2022/05/10 07:42:48;;;;;;;3.67;3.02;;;18.00;99.90;;;;;;1884595;75;21129;-81
2022/05/10 07:45:40;;;;;;;7.83;3.05;;;18.00;99.90;;;;;;1894371;75;21108;-82
2022/05/10 07:48:51;;;;;;;6.50;2.90;;;18.10;99.90;;;;;;1906806;75;21615;-81
2022/05/10 07:51:42;;;;;;;3.30;2.60;;;18.20;99.90;;;;;;1913103;75;21146;-81
2022/05/10 07:57:13;;;;;;;5.20;2.90;;;18.40;99.90;;;;;;1950674;72;22195;-81
2022/05/10 08:00:28;;;;;;;4.08;2.60;;;18.40;99.90;;;;;;1893210;74;21135;-82
2022/05/10 08:06:24;;;;;;;4.03;2.58;;;18.60;99.90;;;;;;1933173;72;22130;-81
2022/05/10 08:09:34;;;;;;;3.95;2.80;;;18.60;99.90;;;;;;1912958;74;21132;-81
2022/05/10 08:12:44;;;;;;;2.70;2.37;;;18.60;99.90;;;;;;1895247;75;21568;-82
2022/05/10 08:20:58;;;;;;;4.55;2.70;;;18.80;99.90;;;;;;1953127;72;22252;-81
2022/05/10 08:24:15;;;;;;;3.45;2.60;;;19.00;99.90;;;;;;1910307;75;21082;-81
2022/05/10 08:30:09;;;;;;;5.85;2.92;;;19.10;99.90;;;;;;1942309;72;22172;-81
2022/05/10 08:36:00;;;;;;;4.33;2.35;;;19.20;99.90;;;;;;1964643;72;22229;-81
2022/05/10 08:39:10;;;;;;;4.00;2.50;;;19.30;99.90;;;;;;1943199;73;21177;-81
2022/05/10 08:45:05;;;;;;;4.28;2.50;;;19.50;99.90;;;;;;1946286;72;22634;-81
2022/05/10 08:48:17;;;;;;;4.37;2.42;;;19.60;99.90;;;;;;1916726;75;21123;-81
2022/05/10 08:51:27;;;;;;;2.87;1.80;;;19.80;99.90;;;;;;1906707;75;21090;-82
2022/05/10 08:54:18;;;;;;;3.00;2.20;;;19.80;99.90;;;;;;1892330;75;21091;-81
2022/05/10 09:00:14;;;;;;;6.03;2.52;;;20.00;99.90;;;;;;1944287;72;22191;-81
2022/05/10 09:03:30;;;;;;;3.30;2.10;;;20.10;99.90;;;;;;1917465;75;21140;-81
2022/05/10 09:06:44;;;;;;;3.45;2.22;;;20.20;99.90;;;;;;1940191;73;21149;-81
2022/05/10 09:09:39;;;;;;;4.95;2.40;;;20.30;99.90;;;;;;1943948;73;21047;-81
2022/05/10 09:12:52;;;;;;;4.05;2.12;;;20.30;99.90;;;;;;1927885;73;21103;-83
2022/05/10 09:15:49;;;;;;;4.58;2.50;;;20.40;99.90;;;;;;1940094;73;21050;-81
2022/05/10 09:21:24;;;;;;;3.70;2.20;;;20.60;99.90;;;;;;1941181;72;22130;-81
2022/05/10 09:24:36;;;;;;;5.40;2.40;;;20.60;99.90;;;;;;1919191;74;21046;-81
2022/05/10 09:30:29;;;;;;;5.85;2.40;;;20.80;99.90;;;;;;1934125;72;22208;-81
2022/05/10 09:37:16;;;;;;;5.97;2.60;;;21.00;99.90;;;;;;1888306;75;21216;-82
2022/05/10 09:40:22;;;;;;;3.67;2.52;;;21.10;99.90;;;;;;1906709;75;21091;-82
2022/05/10 09:43:34;;;;;;;4.55;2.17;;;21.20;99.90;;;;;;1895219;75;21185;-82
2022/05/10 09:46:29;;;;;;;3.12;2.00;;;21.30;99.90;;;;;;1897857;75;21055;-82
2022/05/10 09:49:39;;;;;;;4.47;2.00;;;21.50;99.90;;;;;;1899368;75;21099;-81
2022/05/10 09:52:31;;;;;;;2.83;1.57;;;21.60;99.90;;;;;;1906740;74;21163;-82
2022/05/10 09:55:29;;;;;;;3.22;1.80;;;21.70;99.90;;;;;;1893959;75;21109;-82
2022/05/10 09:58:24;;;;;;;3.83;1.95;;;21.70;99.90;;;;;;1903593;75;21632;-82
2022/05/10 10:01:18;;;;;;;3.35;2.00;;;21.70;99.90;;;;;;1895500;75;21095;-81
2022/05/10 10:04:20;;;;;;;2.12;1.92;;;21.80;99.90;;;;;;1915653;75;21558;-81
2022/05/10 10:07:16;;;;;;;2.60;1.62;;;21.90;99.90;;;;;;1884452;75;21182;-81
2022/05/10 10:10:18;;;;;;;2.02;1.70;;;22.00;99.90;;;;;;1884742;76;21132;-81
2022/05/10 10:13:30;;;;;;;2.17;1.90;;;22.10;99.90;;;;;;1916529;75;21213;-81
2022/05/10 10:16:25;;;;;;;3.10;2.00;;;22.20;99.90;;;;;;1895331;75;21660;-81
2022/05/10 10:19:30;;;;;;;3.47;2.00;;;22.40;99.90;;;;;;1917156;75;21148;-80
2022/05/10 10:30:35;;;;;;;4.20;2.08;;;22.70;99.90;;;;;;1948464;72;22196;-81
2022/05/10 10:33:48;;;;;;;2.27;2.00;;;22.80;99.90;;;;;;1934030;73;21144;-82
2022/05/10 10:37:01;;;;;;;2.02;1.77;;;22.90;99.90;;;;;;1925230;73;21164;-82
2022/05/10 10:39:57;;;;;;;4.83;2.15;;;23.00;99.90;;;;;;1938926;73;21098;-81
2022/05/10 10:43:13;;;;;;;3.75;1.80;;;23.10;99.90;;;;;;1930027;73;21042;-81
2022/05/10 10:46:09;;;;;;;3.60;1.85;;;23.20;99.90;;;;;;1931856;73;21502;-81
2022/05/10 10:49:05;;;;;;;2.58;1.75;;;23.20;99.90;;;;;;1919619;73;21121;-81
2022/05/10 10:51:58;;;;;;;2.42;2.00;;;23.40;99.90;;;;;;1916459;73;21062;-81
2022/05/10 10:54:49;;;;;;;1.98;1.82;;;23.50;99.90;;;;;;1917457;75;21169;-81
2022/05/10 11:00:34;;;;;;;2.20;2.00;;;23.70;99.90;;;;;;1959905;72;22111;-81
2022/05/10 11:03:48;;;;;;;3.90;2.12;;;23.80;99.90;;;;;;1917629;73;21046;-81
2022/05/10 11:06:58;;;;;;;4.17;2.45;;;24.00;99.90;;;;;;1932805;73;21184;-81
2022/05/10 11:09:53;;;;;;;2.47;2.20;;;24.00;99.90;;;;;;1917197;75;21094;-81
2022/05/10 11:13:06;;;;;;;2.58;2.05;;;24.00;99.90;;;;;;1917385;75;21043;-82
2022/05/10 11:16:05;;;;;;;3.67;2.05;;;24.10;99.90;;;;;;1917457;75;21062;-81
2022/05/10 11:19:06;;;;;;;4.37;2.25;;;24.20;99.90;;;;;;1917543;75;21047;-81
2022/05/10 11:22:01;;;;;;;4.83;1.90;;;24.40;99.90;;;;;;1917171;75;21253;-81
2022/05/10 11:24:58;;;;;;;2.77;1.87;;;24.60;99.90;;;;;;1917424;75;21056;-81
2022/05/10 11:30:39;;;;;;;2.75;1.85;;;24.80;99.90;;;;;;1947756;72;22168;-81
2022/05/10 11:33:53;;;;;;;5.55;2.35;;;24.90;99.90;;;;;;1917694;75;21030;-80
2022/05/10 11:37:05;;;;;;;3.45;2.05;;;25.10;99.90;;;;;;1921263;73;21181;-80
2022/05/10 11:40:37;;;;;;;2.22;1.70;;;25.20;99.90;;;;;;1929983;73;21141;-81
2022/05/10 11:44:30;;;;;;;1.82;1.45;;;25.20;99.90;;;;;;1924422;73;21146;-81
2022/05/10 11:47:54;;;;;;;1.57;1.35;;;25.10;99.90;;;;;;1903499;75;21122;-81
2022/05/10 11:54:45;;;;;;;2.12;1.30;;;25.20;99.90;;;;;;1935715;73;21134;-81
2022/05/10 11:57:37;;;;;;;1.67;1.30;;;25.20;98.70;;;;;;1951638;73;21183;-81
2022/05/10 12:00:52;;;;;;;1.42;1.10;;;25.10;97.50;;;;;;1917399;75;21165;-81
2022/05/10 12:03:53;;;;;;;1.95;1.00;;;25.20;95.90;;;;;;1930715;73;21117;-81
2022/05/10 12:06:46;;;;;;;1.42;1.10;;;25.20;95.80;;;;;;1918538;73;21135;-81
2022/05/10 12:10:03;;;;;;;1.30;1.20;;;25.20;95.40;;;;;;1917565;75;21098;-81
2022/05/10 12:13:06;;;;;;;2.12;1.10;;;25.30;95.50;;;;;;1917698;75;21117;-81
2022/05/10 12:22:45;;;;;;;1.30;0.90;;;25.70;91.10;;;;;;1940391;73;21122;-81
2022/05/10 12:25:59;;;;;;;1.20;0.90;;;25.70;90.50;;;;;;1917716;75;21094;-81
2022/05/10 12:28:51;;;;;;;1.07;0.82;;;25.70;90.30;;;;;;1919351;73;21051;-81
2022/05/10 12:32:01;;;;;;;2.65;1.35;;;25.70;87.70;;;;;;1932217;73;21194;-81
2022/05/10 12:34:55;;;;;;;1.32;1.07;;;25.80;89.90;;;;;;1917660;75;21122;-81
2022/05/10 12:37:58;;;;;;;2.52;1.30;;;25.70;90.90;;;;;;1917524;75;21052;-81
2022/05/10 12:41:01;;;;;;;2.22;1.27;;;25.80;90.30;;;;;;1917194;75;21117;-81
2022/05/10 12:44:16;;;;;;;2.47;1.30;;;25.80;91.20;;;;;;1916797;75;21116;-81
2022/05/10 12:47:18;;;;;;;2.20;1.50;;;25.80;92.30;;;;;;1916814;75;21226;-81
2022/05/10 12:50:22;;;;;;;2.35;1.55;;;25.80;94.10;;;;;;1922340;73;21609;-81
2022/05/10 12:53:40;;;;;;;1.87;1.62;;;25.80;94.30;;;;;;1946945;73;21079;-81
2022/05/10 12:56:34;;;;;;;1.75;1.65;;;25.80;94.90;;;;;;1916907;75;21642;-81
2022/05/10 13:02:11;;;;;;;1.85;1.52;;;26.00;93.90;;;;;;1955283;72;22176;-80
2022/05/10 13:05:24;;;;;;;2.05;1.70;;;25.90;94.20;;;;;;1897958;75;21105;-82
2022/05/10 13:08:51;;;;;;;1.87;1.60;;;26.00;92.70;;;;;;1897801;75;21720;-81
2022/05/10 13:11:55;;;;;;;1.57;1.47;;;26.10;93.90;;;;;;1902583;75;21065;-81
2022/05/10 13:14:48;;;;;;;2.00;1.80;;;26.10;93.80;;;;;;1853507;77;21168;-81
2022/05/10 13:17:44;;;;;;;1.92;1.62;;;26.30;93.70;;;;;;1853626;77;21121;-81
2022/05/10 13:20:37;;;;;;;2.50;1.50;;;26.30;94.20;;;;;;1853704;77;21077;-81
2022/05/10 13:23:31;;;;;;;1.85;1.62;;;26.40;93.50;;;;;;1853947;77;21846;-81
2022/05/10 13:26:23;;;;;;;2.40;1.70;;;26.40;93.10;;;;;;1834337;77;21533;-81
2022/05/10 13:29:14;;;;;;;1.65;1.55;;;26.50;93.50;;;;;;1854310;77;21146;-80
2022/05/10 13:32:10;;;;;;;2.92;1.72;;;26.50;93.50;;;;;;1853676;77;21562;-81
2022/05/10 13:35:07;;;;;;;2.98;1.82;;;26.50;93.70;;;;;;1853772;77;21117;-81
2022/05/10 13:38:03;;;;;;;1.80;1.70;;;26.60;93.80;;;;;;1853967;77;21227;-82
2022/05/10 13:40:59;;;;;;;2.20;2.00;;;26.60;94.40;;;;;;1835030;77;21548;-81
2022/05/10 13:43:53;;;;;;;1.57;1.47;;;26.70;94.20;;;;;;1853858;77;21109;-81
2022/05/10 13:46:49;;;;;;;2.25;1.87;;;26.80;93.60;;;;;;1854087;77;21116;-81
2022/05/10 13:49:43;;;;;;;3.52;1.87;;;26.90;93.70;;;;;;1854239;77;21193;-81
2022/05/10 13:52:38;;;;;;;1.72;1.62;;;27.00;93.10;;;;;;1853833;77;21298;-81
2022/05/10 13:55:30;;;;;;;2.05;1.60;;;27.10;92.70;;;;;;1834864;77;21667;-81
2022/05/10 13:58:31;;;;;;;2.42;1.77;;;27.30;92.90;;;;;;1854096;77;21074;-81
2022/05/10 14:01:36;;;;;;;3.20;1.77;;;27.50;92.60;;;;;;1854171;77;21137;-81
2022/05/10 14:04:29;;;;;;;1.90;1.80;;;27.70;92.00;;;;;;1854010;77;21102;-81
2022/05/10 14:07:25;;;;;;;2.25;1.98;;;27.90;91.70;;;;;;1854027;77;21077;-81
2022/05/10 14:10:21;;;;;;;3.52;1.98;;;28.00;91.20;;;;;;1841207;77;21136;-81
2022/05/10 14:13:17;;;;;;;4.42;2.10;;;28.30;91.50;;;;;;1828339;77;21196;-81
2022/05/10 14:16:10;;;;;;;3.85;1.72;;;28.30;90.50;;;;;;1801146;78;21139;-82
2022/05/10 14:19:08;;;;;;;1.60;1.50;;;28.60;90.00;;;;;;1817080;78;21080;-81
2022/05/10 14:22:01;;;;;;;2.52;1.75;;;28.70;89.50;;;;;;1805677;79;21100;-81
2022/05/10 14:24:54;;;;;;;2.20;2.00;;;28.90;89.60;;;;;;1809044;78;21579;-81
2022/05/10 14:30:59;;;;;;;2.72;1.90;;;29.00;87.80;;;;;;1823102;78;21580;-82
2022/05/10 14:33:53;;;;;;;3.85;1.80;;;28.90;86.10;;;;;;1821788;78;21085;-81
2022/05/10 14:36:46;;;;;;;3.17;1.92;;;28.80;87.00;;;;;;1815630;78;21144;-81
2022/05/10 14:39:40;;;;;;;2.45;1.98;;;28.70;86.30;;;;;;1811558;78;21206;-81
2022/05/10 14:42:36;;;;;;;1.92;1.82;;;29.00;86.70;;;;;;1794740;80;21148;-81
2022/05/10 14:45:37;;;;;;;3.25;1.80;;;28.90;85.80;;;;;;1816138;78;21145;-81
2022/05/10 14:48:36;;;;;;;1.92;1.75;;;29.00;84.80;;;;;;1816075;78;21685;-81
2022/05/10 14:51:49;;;;;;;2.58;1.75;;;29.00;86.20;;;;;;1817067;78;21198;-81
2022/05/10 14:54:41;;;;;;;3.67;1.95;;;29.30;85.80;;;;;;1805354;78;21083;-81
2022/05/10 14:57:37;;;;;;;5.17;1.95;;;29.40;83.00;;;;;;1809879;78;21114;-81
2022/05/10 15:00:32;;;;;;;2.25;1.90;;;29.30;83.00;;;;;;1807893;78;21098;-82
2022/05/10 15:03:24;;;;;;;2.15;1.95;;;29.70;82.10;;;;;;1818501;78;21158;-81
2022/05/10 15:06:15;;;;;;;2.05;1.85;;;29.50;80.50;;;;;;1818970;78;21098;-81
2022/05/10 15:09:07;;;;;;;2.45;2.00;;;29.10;82.60;;;;;;1804278;79;21077;-81
2022/05/10 15:15:11;;;;;;;2.87;1.80;;;28.90;84.30;;;;;;1814680;78;21561;-81
2022/05/10 15:21:12;;;;;;;2.37;1.85;;;29.70;83.00;;;;;;1853586;77;21102;-81
2022/05/10 15:24:06;;;;;;;2.67;1.65;;;29.90;81.20;;;;;;1853343;77;21560;-81
2022/05/10 15:26:58;;;;;;;3.17;1.85;;;30.30;81.50;;;;;;1841750;78;21234;-81
2022/05/10 15:29:51;;;;;;;2.27;1.92;;;30.40;80.50;;;;;;1841589;78;21115;-81
2022/05/10 15:32:42;;;;;;;3.55;2.00;;;30.40;78.70;;;;;;1853377;77;21182;-81
2022/05/10 15:35:34;;;;;;;2.00;1.80;;;30.30;79.10;;;;;;1840974;78;21183;-82
2022/05/10 15:41:07;;;;;;;3.45;2.10;;;30.50;77.60;;;;;;1958258;72;22626;-81
2022/05/10 15:44:17;;;;;;;2.05;1.70;;;30.70;76.40;;;;;;1898734;75;21158;-81
2022/05/10 15:47:30;;;;;;;2.75;1.60;;;31.00;74.10;;;;;;1884693;76;21144;-81
2022/05/10 15:50:26;;;;;;;3.12;1.82;;;31.20;73.20;;;;;;1915512;75;21159;-81
2022/05/10 15:53:38;;;;;;;2.85;1.98;;;30.70;74.90;;;;;;1895154;75;21028;-82
2022/05/10 15:56:30;;;;;;;2.62;1.92;;;29.80;75.60;;;;;;1895285;75;21110;-81
2022/05/10 15:59:22;;;;;;;1.70;1.60;;;29.90;76.10;;;;;;1896793;75;21604;-82
2022/05/10 16:02:14;;;;;;;2.72;1.70;;;30.40;74.30;;;;;;1899527;75;21197;-81
2022/05/10 16:05:09;;;;;;;2.90;1.80;;;30.10;73.80;;;;;;1884690;75;21464;-81
2022/05/10 16:08:01;;;;;;;2.72;1.82;;;30.30;72.50;;;;;;1884270;76;21136;-81
2022/05/10 16:10:54;;;;;;;1.65;1.55;;;30.50;72.70;;;;;;1934993;73;21043;-81
2022/05/10 16:13:46;;;;;;;2.20;1.70;;;30.90;71.80;;;;;;1894080;75;21105;-81
2022/05/10 16:16:38;;;;;;;2.12;1.85;;;30.70;71.80;;;;;;1896447;75;21071;-81
2022/05/10 16:19:30;;;;;;;2.17;1.98;;;30.60;71.90;;;;;;1895510;75;21152;-81
2022/05/10 16:22:22;;;;;;;2.12;1.90;;;30.20;71.50;;;;;;1895469;75;21153;-81
2022/05/10 16:25:14;;;;;;;2.08;1.70;;;30.50;70.20;;;;;;1898610;75;21133;-81
2022/05/10 16:31:18;;;;;;;2.58;1.80;;;30.50;69.80;;;;;;1897944;75;21102;-81
2022/05/10 16:34:11;;;;;;;2.05;1.90;;;31.30;67.40;;;;;;1895308;75;21093;-81
2022/05/10 16:37:02;;;;;;;1.75;1.52;;;31.50;66.70;;;;;;1895686;75;21122;-81
2022/05/10 16:39:54;;;;;;;2.40;1.72;;;31.60;66.10;;;;;;1899254;75;21213;-81
2022/05/10 16:42:46;;;;;;;2.65;2.05;;;31.80;64.70;;;;;;1872095;76;21057;-81
2022/05/10 16:45:37;;;;;;;1.80;1.70;;;31.80;64.80;;;;;;1924556;74;21098;-82
2022/05/10 16:48:29;;;;;;;1.80;1.70;;;31.90;64.50;;;;;;1879916;76;21189;-82
2022/05/10 16:51:20;;;;;;;1.65;1.55;;;31.80;64.00;;;;;;1900007;75;21086;-82
2022/05/10 16:54:18;;;;;;;2.45;1.90;;;32.10;63.90;;;;;;1899953;74;21098;-82
2022/05/10 16:57:11;;;;;;;1.82;1.72;;;32.10;63.90;;;;;;1911772;74;21123;-82
2022/05/10 17:00:06;;;;;;;2.20;1.75;;;32.30;64.50;;;;;;1904030;74;21068;-82
2022/05/10 17:02:57;;;;;;;4.87;1.60;;;31.50;64.80;;;;;;1901851;74;21137;-81
2022/05/10 17:05:50;;;;;;;2.02;1.90;;;31.20;65.60;;;;;;1838183;77;21251;-81
2022/05/10 17:08:42;;;;;;;5.05;2.00;;;31.10;65.90;;;;;;1913577;74;21086;-82
2022/05/10 17:11:35;;;;;;;2.92;1.75;;;30.90;66.60;;;;;;1835283;77;21501;-82
2022/05/10 17:14:27;;;;;;;2.35;1.57;;;30.70;66.30;;;;;;1910546;74;21568;-82
2022/05/10 17:17:19;;;;;;;2.27;2.02;;;30.50;67.20;;;;;;1835926;77;21176;-81
2022/05/10 17:20:14;;;;;;;1.70;1.60;;;30.40;67.30;;;;;;1916352;74;21426;-81
2022/05/10 17:23:05;;;;;;;1.90;1.67;;;30.00;68.00;;;;;;1836301;77;21057;-80
2022/05/10 17:25:58;;;;;;;2.65;1.70;;;29.70;66.90;;;;;;1910570;74;21059;-81
2022/05/10 17:28:58;;;;;;;3.98;2.37;;;29.40;67.50;;;;;;1835155;77;21695;-81
2022/05/10 17:31:50;;;;;;;5.60;3.10;;;29.10;68.80;;;;;;1913043;74;21546;-81
2022/05/10 17:34:43;;;;;;;2.55;2.02;;;28.90;68.20;;;;;;1857534;77;21056;-81
2022/05/10 17:37:35;;;;;;;4.08;2.52;;;28.90;69.30;;;;;;1922228;74;21215;-81
2022/05/10 17:40:26;;;;;;;3.98;2.30;;;28.90;71.10;;;;;;1879300;76;21116;-81
2022/05/10 17:43:18;;;;;;;2.40;2.20;;;28.80;74.00;;;;;;1921443;74;21067;-81
2022/05/10 17:46:10;;;;;;;3.17;2.08;;;28.30;75.20;;;;;;1841021;77;21078;-81
2022/05/10 17:49:03;;;;;;;3.65;2.10;;;27.70;77.90;;;;;;1911572;74;21584;-81
2022/05/10 17:51:55;;;;;;;3.25;2.35;;;27.40;79.40;;;;;;1835626;77;21081;-81
2022/05/10 17:54:46;;;;;;;5.20;2.75;;;27.00;81.00;;;;;;1910933;74;21140;-81
2022/05/10 17:57:38;;;;;;;3.58;3.22;;;26.80;81.30;;;;;;1838435;77;21128;-81
2022/05/10 18:00:30;;;;;;;3.62;2.50;;;26.60;81.60;;;;;;1913696;74;21157;-81
2022/05/10 18:03:21;;;;;;;3.33;2.10;;;26.50;81.80;;;;;;1835200;77;21117;-81
2022/05/10 18:06:13;;;;;;;2.83;2.05;;;26.20;82.60;;;;;;1907003;74;21104;-81
2022/05/10 18:09:05;;;;;;;1.90;1.80;;;26.10;84.00;;;;;;1825419;78;21066;-81
2022/05/10 18:11:57;;;;;;;3.00;2.20;;;26.00;84.70;;;;;;1899823;74;21155;-81
2022/05/10 18:14:48;;;;;;;2.22;1.92;;;25.80;86.00;;;;;;1834629;77;21520;-82
2022/05/10 18:17:40;;;;;;;2.50;2.30;;;25.60;86.70;;;;;;1911088;74;21080;-81
2022/05/10 18:20:31;;;;;;;3.35;1.90;;;25.50;88.40;;;;;;1836950;77;21104;-81
2022/05/10 18:23:23;;;;;;;2.10;1.90;;;25.30;89.20;;;;;;1899927;75;21101;-81
2022/05/10 18:26:17;;;;;;;2.30;2.08;;;25.20;89.80;;;;;;1911092;74;21046;-81